sensor_id;sensor_type;location;lat;lon;timestamp;P1;durP1;ratioP1;P2;durP2;ratioP2
22078;SDS011;11206;57.696;11.944;2022-09-09T00:00:59;0.73;;;0.35;;
22078;SDS011;11206;57.696;11.944;2022-09-09T00:03:30;0.63;;;0.40;;
22078;SDS011;11206;57.696;11.944;2022-09-09T00:06:02;0.20;;;0.20;;
22078;SDS011;11206;57.696;11.944;2022-09-09T00:08:53;0.20;;;0.20;;
22078;SDS011;11206;57.696;11.944;2022-09-09T00:11:24;1.05;;;0.30;;
22078;SDS011;11206;57.696;11.944;2022-09-09T00:13:52;1.45;;;0.20;;
22078;SDS011;11206;57.696;11.944;2022-09-09T00:16:25;1.13;;;0.40;;
22078;SDS011;11206;57.696;11.944;2022-09-09T00:18:55;0.88;;;0.30;;
22078;SDS011;11206;57.696;11.944;2022-09-09T00:21:25;0.65;;;0.10;;
22078;SDS011;11206;57.696;11.944;2022-09-09T00:23:53;0.35;;;0.30;;
22078;SDS011;11206;57.696;11.944;2022-09-09T00:26:22;4.57;;;0.50;;
22078;SDS011;11206;57.696;11.944;2022-09-09T00:29:05;1.42;;;0.40;;
22078;SDS011;11206;57.696;11.944;2022-09-09T00:31:35;2.13;;;0.28;;
22078;SDS011;11206;57.696;11.944;2022-09-09T00:36:37;0.60;;;0.20;;
22078;SDS011;11206;57.696;11.944;2022-09-09T00:39:04;1.23;;;0.32;;
22078;SDS011;11206;57.696;11.944;2022-09-09T01:02:28;0.95;;;0.20;;
22078;SDS011;11206;57.696;11.944;2022-09-09T01:04:53;0.85;;;0.22;;
22078;SDS011;11206;57.696;11.944;2022-09-09T01:07:19;0.68;;;0.30;;
22078;SDS011;11206;57.696;11.944;2022-09-09T01:12:14;0.40;;;0.28;;
22078;SDS011;11206;57.696;11.944;2022-09-09T01:14:42;0.08;;;0.03;;
22078;SDS011;11206;57.696;11.944;2022-09-09T01:17:17;1.10;;;0.43;;
22078;SDS011;11206;57.696;11.944;2022-09-09T01:27:02;0.38;;;0.35;;
22078;SDS011;11206;57.696;11.944;2022-09-09T01:29:29;1.55;;;0.30;;
22078;SDS011;11206;57.696;11.944;2022-09-09T01:31:59;0.30;;;0.28;;
22078;SDS011;11206;57.696;11.944;2022-09-09T01:34:31;0.85;;;0.30;;
22078;SDS011;11206;57.696;11.944;2022-09-09T01:37:02;0.20;;;0.13;;
22078;SDS011;11206;57.696;11.944;2022-09-09T01:39:33;3.05;;;0.50;;
22078;SDS011;11206;57.696;11.944;2022-09-09T01:41:59;0.50;;;0.30;;
22078;SDS011;11206;57.696;11.944;2022-09-09T01:44:25;0.47;;;0.20;;
22078;SDS011;11206;57.696;11.944;2022-09-09T01:46:52;2.08;;;0.20;;
22078;SDS011;11206;57.696;11.944;2022-09-09T01:49:18;0.52;;;0.38;;
22078;SDS011;11206;57.696;11.944;2022-09-09T01:51:45;1.63;;;0.35;;
22078;SDS011;11206;57.696;11.944;2022-09-09T01:54:12;2.40;;;0.30;;
22078;SDS011;11206;57.696;11.944;2022-09-09T01:59:25;0.20;;;0.20;;
22078;SDS011;11206;57.696;11.944;2022-09-09T02:02:09;0.17;;;0.10;;
22078;SDS011;11206;57.696;11.944;2022-09-09T02:05:02;0.40;;;0.25;;
22078;SDS011;11206;57.696;11.944;2022-09-09T02:07:30;0.32;;;0.22;;
22078;SDS011;11206;57.696;11.944;2022-09-09T02:10:04;0.28;;;0.20;;
22078;SDS011;11206;57.696;11.944;2022-09-09T02:12:32;0.95;;;0.30;;
22078;SDS011;11206;57.696;11.944;2022-09-09T02:15:03;0.30;;;0.20;;
22078;SDS011;11206;57.696;11.944;2022-09-09T02:17:31;0.25;;;0.20;;
22078;SDS011;11206;57.696;11.944;2022-09-09T02:20:10;2.20;;;0.40;;
22078;SDS011;11206;57.696;11.944;2022-09-09T02:22:38;0.85;;;0.38;;
22078;SDS011;11206;57.696;11.944;2022-09-09T02:25:06;2.08;;;0.30;;
22078;SDS011;11206;57.696;11.944;2022-09-09T02:27:32;0.30;;;0.30;;
22078;SDS011;11206;57.696;11.944;2022-09-09T02:29:59;2.50;;;0.68;;
22078;SDS011;11206;57.696;11.944;2022-09-09T02:32:27;1.55;;;0.43;;
22078;SDS011;11206;57.696;11.944;2022-09-09T02:35:00;2.35;;;0.40;;
22078;SDS011;11206;57.696;11.944;2022-09-09T02:37:29;1.75;;;0.40;;
22078;SDS011;11206;57.696;11.944;2022-09-09T02:39:58;0.55;;;0.30;;
22078;SDS011;11206;57.696;11.944;2022-09-09T02:42:24;0.52;;;0.35;;
22078;SDS011;11206;57.696;11.944;2022-09-09T02:44:50;0.47;;;0.30;;
22078;SDS011;11206;57.696;11.944;2022-09-09T02:52:25;0.38;;;0.30;;
22078;SDS011;11206;57.696;11.944;2022-09-09T02:54:54;2.17;;;0.30;;
22078;SDS011;11206;57.696;11.944;2022-09-09T02:57:25;4.43;;;0.50;;
22078;SDS011;11206;57.696;11.944;2022-09-09T02:59:52;0.30;;;0.20;;
22078;SDS011;11206;57.696;11.944;2022-09-09T03:02:20;2.95;;;0.40;;
22078;SDS011;11206;57.696;11.944;2022-09-09T03:04:46;1.95;;;0.50;;
22078;SDS011;11206;57.696;11.944;2022-09-09T03:07:16;1.55;;;0.52;;
22078;SDS011;11206;57.696;11.944;2022-09-09T03:09:42;0.40;;;0.20;;
22078;SDS011;11206;57.696;11.944;2022-09-09T03:12:09;1.48;;;0.40;;
22078;SDS011;11206;57.696;11.944;2022-09-09T03:14:36;0.45;;;0.35;;
22078;SDS011;11206;57.696;11.944;2022-09-09T03:17:03;0.55;;;0.43;;
22078;SDS011;11206;57.696;11.944;2022-09-09T03:19:29;1.13;;;0.30;;
22078;SDS011;11206;57.696;11.944;2022-09-09T03:21:56;0.82;;;0.30;;
22078;SDS011;11206;57.696;11.944;2022-09-09T03:24:23;0.30;;;0.20;;
22078;SDS011;11206;57.696;11.944;2022-09-09T03:26:49;2.05;;;0.30;;
22078;SDS011;11206;57.696;11.944;2022-09-09T03:29:16;1.08;;;0.50;;
22078;SDS011;11206;57.696;11.944;2022-09-09T03:31:45;0.52;;;0.30;;
22078;SDS011;11206;57.696;11.944;2022-09-09T03:34:11;0.52;;;0.40;;
22078;SDS011;11206;57.696;11.944;2022-09-09T03:36:39;0.57;;;0.40;;
22078;SDS011;11206;57.696;11.944;2022-09-09T03:39:06;0.85;;;0.30;;
22078;SDS011;11206;57.696;11.944;2022-09-09T03:41:32;2.20;;;0.68;;
22078;SDS011;11206;57.696;11.944;2022-09-09T03:43:59;0.65;;;0.35;;
22078;SDS011;11206;57.696;11.944;2022-09-09T03:46:25;3.60;;;0.60;;
22078;SDS011;11206;57.696;11.944;2022-09-09T03:48:51;0.52;;;0.40;;
22078;SDS011;11206;57.696;11.944;2022-09-09T03:51:17;1.10;;;0.40;;
22078;SDS011;11206;57.696;11.944;2022-09-09T03:53:44;0.85;;;0.30;;
22078;SDS011;11206;57.696;11.944;2022-09-09T03:56:10;1.02;;;0.20;;
22078;SDS011;11206;57.696;11.944;2022-09-09T03:58:36;11.63;;;0.57;;
22078;SDS011;11206;57.696;11.944;2022-09-09T04:01:03;2.38;;;0.45;;
22078;SDS011;11206;57.696;11.944;2022-09-09T04:03:30;2.47;;;0.52;;
22078;SDS011;11206;57.696;11.944;2022-09-09T04:05:57;2.15;;;0.50;;
22078;SDS011;11206;57.696;11.944;2022-09-09T04:08:23;0.88;;;0.52;;
22078;SDS011;11206;57.696;11.944;2022-09-09T04:10:53;0.70;;;0.40;;
22078;SDS011;11206;57.696;11.944;2022-09-09T04:13:23;0.32;;;0.30;;
22078;SDS011;11206;57.696;11.944;2022-09-09T04:15:56;8.32;;;0.80;;
22078;SDS011;11206;57.696;11.944;2022-09-09T04:18:23;1.85;;;0.50;;
22078;SDS011;11206;57.696;11.944;2022-09-09T04:20:50;0.68;;;0.30;;
22078;SDS011;11206;57.696;11.944;2022-09-09T04:23:16;0.93;;;0.50;;
22078;SDS011;11206;57.696;11.944;2022-09-09T04:25:46;0.52;;;0.40;;
22078;SDS011;11206;57.696;11.944;2022-09-09T04:28:13;4.22;;;0.20;;
22078;SDS011;11206;57.696;11.944;2022-09-09T04:30:39;3.03;;;0.65;;
22078;SDS011;11206;57.696;11.944;2022-09-09T04:33:06;1.98;;;0.60;;
22078;SDS011;11206;57.696;11.944;2022-09-09T04:35:32;0.47;;;0.30;;
22078;SDS011;11206;57.696;11.944;2022-09-09T04:37:58;0.55;;;0.30;;
22078;SDS011;11206;57.696;11.944;2022-09-09T04:40:24;0.63;;;0.30;;
22078;SDS011;11206;57.696;11.944;2022-09-09T04:42:50;0.80;;;0.47;;
22078;SDS011;11206;57.696;11.944;2022-09-09T04:45:17;2.33;;;0.70;;
22078;SDS011;11206;57.696;11.944;2022-09-09T04:47:43;1.45;;;0.45;;
22078;SDS011;11206;57.696;11.944;2022-09-09T04:50:09;2.63;;;0.50;;
22078;SDS011;11206;57.696;11.944;2022-09-09T04:52:37;0.70;;;0.35;;
22078;SDS011;11206;57.696;11.944;2022-09-09T04:55:03;0.40;;;0.30;;
22078;SDS011;11206;57.696;11.944;2022-09-09T04:57:29;3.63;;;0.50;;
22078;SDS011;11206;57.696;11.944;2022-09-09T04:59:57;0.57;;;0.40;;
22078;SDS011;11206;57.696;11.944;2022-09-09T05:02:24;0.60;;;0.32;;
22078;SDS011;11206;57.696;11.944;2022-09-09T05:04:51;1.40;;;0.70;;
22078;SDS011;11206;57.696;11.944;2022-09-09T05:07:17;0.60;;;0.40;;
22078;SDS011;11206;57.696;11.944;2022-09-09T05:09:44;0.85;;;0.45;;
22078;SDS011;11206;57.696;11.944;2022-09-09T05:12:10;2.17;;;0.30;;
22078;SDS011;11206;57.696;11.944;2022-09-09T05:14:36;0.55;;;0.40;;
22078;SDS011;11206;57.696;11.944;2022-09-09T05:17:03;2.22;;;0.38;;
22078;SDS011;11206;57.696;11.944;2022-09-09T05:19:29;3.00;;;0.57;;
22078;SDS011;11206;57.696;11.944;2022-09-09T05:21:56;0.55;;;0.50;;
22078;SDS011;11206;57.696;11.944;2022-09-09T05:24:22;2.40;;;0.77;;
22078;SDS011;11206;57.696;11.944;2022-09-09T05:26:48;0.55;;;0.30;;
22078;SDS011;11206;57.696;11.944;2022-09-09T05:29:14;5.18;;;0.43;;
22078;SDS011;11206;57.696;11.944;2022-09-09T05:31:44;2.40;;;0.30;;
22078;SDS011;11206;57.696;11.944;2022-09-09T05:34:10;3.03;;;0.50;;
22078;SDS011;11206;57.696;11.944;2022-09-09T05:36:36;1.17;;;0.50;;
22078;SDS011;11206;57.696;11.944;2022-09-09T05:39:02;5.68;;;0.73;;
22078;SDS011;11206;57.696;11.944;2022-09-09T05:41:28;2.72;;;0.50;;
22078;SDS011;11206;57.696;11.944;2022-09-09T05:43:56;5.10;;;0.60;;
22078;SDS011;11206;57.696;11.944;2022-09-09T05:46:24;2.05;;;0.57;;
22078;SDS011;11206;57.696;11.944;2022-09-09T05:48:50;2.72;;;0.60;;
22078;SDS011;11206;57.696;11.944;2022-09-09T05:51:17;1.73;;;0.30;;
22078;SDS011;11206;57.696;11.944;2022-09-09T05:53:45;4.57;;;0.43;;
22078;SDS011;11206;57.696;11.944;2022-09-09T05:56:16;11.00;;;0.70;;
22078;SDS011;11206;57.696;11.944;2022-09-09T05:58:46;1.85;;;0.40;;
22078;SDS011;11206;57.696;11.944;2022-09-09T06:01:15;0.95;;;0.52;;
22078;SDS011;11206;57.696;11.944;2022-09-09T06:03:41;5.40;;;0.60;;
22078;SDS011;11206;57.696;11.944;2022-09-09T06:06:11;3.35;;;0.75;;
22078;SDS011;11206;57.696;11.944;2022-09-09T06:08:38;3.17;;;0.52;;
22078;SDS011;11206;57.696;11.944;2022-09-09T06:11:06;4.97;;;0.60;;
22078;SDS011;11206;57.696;11.944;2022-09-09T06:13:32;3.13;;;0.50;;
22078;SDS011;11206;57.696;11.944;2022-09-09T06:16:00;2.20;;;0.60;;
22078;SDS011;11206;57.696;11.944;2022-09-09T06:18:26;4.32;;;0.50;;
22078;SDS011;11206;57.696;11.944;2022-09-09T06:20:55;3.10;;;0.60;;
22078;SDS011;11206;57.696;11.944;2022-09-09T06:23:21;3.65;;;0.80;;
22078;SDS011;11206;57.696;11.944;2022-09-09T06:25:48;4.35;;;0.60;;
22078;SDS011;11206;57.696;11.944;2022-09-09T06:28:14;5.78;;;0.70;;
22078;SDS011;11206;57.696;11.944;2022-09-09T06:30:41;4.65;;;0.93;;
22078;SDS011;11206;57.696;11.944;2022-09-09T06:33:07;3.90;;;0.77;;
22078;SDS011;11206;57.696;11.944;2022-09-09T06:35:34;5.15;;;0.73;;
22078;SDS011;11206;57.696;11.944;2022-09-09T06:38:00;4.45;;;1.00;;
22078;SDS011;11206;57.696;11.944;2022-09-09T06:40:27;2.90;;;0.90;;
22078;SDS011;11206;57.696;11.944;2022-09-09T06:42:53;4.22;;;0.90;;
22078;SDS011;11206;57.696;11.944;2022-09-09T06:45:20;2.05;;;0.80;;
22078;SDS011;11206;57.696;11.944;2022-09-09T06:47:46;2.17;;;0.90;;
22078;SDS011;11206;57.696;11.944;2022-09-09T06:50:12;1.48;;;0.77;;
22078;SDS011;11206;57.696;11.944;2022-09-09T06:52:39;6.32;;;1.15;;
22078;SDS011;11206;57.696;11.944;2022-09-09T06:55:05;10.65;;;1.38;;
22078;SDS011;11206;57.696;11.944;2022-09-09T06:57:32;5.72;;;1.00;;
22078;SDS011;11206;57.696;11.944;2022-09-09T06:59:58;7.45;;;1.75;;
22078;SDS011;11206;57.696;11.944;2022-09-09T07:02:24;5.25;;;1.58;;
22078;SDS011;11206;57.696;11.944;2022-09-09T07:04:50;3.08;;;1.00;;
22078;SDS011;11206;57.696;11.944;2022-09-09T07:07:16;2.95;;;1.20;;
22078;SDS011;11206;57.696;11.944;2022-09-09T07:09:42;2.38;;;1.00;;
22078;SDS011;11206;57.696;11.944;2022-09-09T07:12:11;5.95;;;0.75;;
22078;SDS011;11206;57.696;11.944;2022-09-09T07:14:38;2.55;;;0.85;;
22078;SDS011;11206;57.696;11.944;2022-09-09T07:17:04;1.65;;;1.00;;
22078;SDS011;11206;57.696;11.944;2022-09-09T07:19:30;7.53;;;1.35;;
22078;SDS011;11206;57.696;11.944;2022-09-09T07:21:56;4.38;;;1.17;;
22078;SDS011;11206;57.696;11.944;2022-09-09T07:24:22;4.50;;;1.02;;
22078;SDS011;11206;57.696;11.944;2022-09-09T07:26:49;4.38;;;0.80;;
22078;SDS011;11206;57.696;11.944;2022-09-09T07:29:17;4.22;;;1.23;;
22078;SDS011;11206;57.696;11.944;2022-09-09T07:31:43;1.80;;;0.55;;
22078;SDS011;11206;57.696;11.944;2022-09-09T07:34:09;2.15;;;0.82;;
22078;SDS011;11206;57.696;11.944;2022-09-09T07:36:36;3.33;;;1.10;;
22078;SDS011;11206;57.696;11.944;2022-09-09T07:39:07;1.35;;;0.68;;
22078;SDS011;11206;57.696;11.944;2022-09-09T07:41:38;4.45;;;0.70;;
22078;SDS011;11206;57.696;11.944;2022-09-09T07:44:07;4.25;;;0.80;;
22078;SDS011;11206;57.696;11.944;2022-09-09T07:46:34;6.32;;;0.98;;
22078;SDS011;11206;57.696;11.944;2022-09-09T07:49:00;5.90;;;0.80;;
22078;SDS011;11206;57.696;11.944;2022-09-09T07:51:28;2.92;;;0.63;;
22078;SDS011;11206;57.696;11.944;2022-09-09T07:53:55;1.92;;;0.63;;
22078;SDS011;11206;57.696;11.944;2022-09-09T07:56:25;1.95;;;0.80;;
22078;SDS011;11206;57.696;11.944;2022-09-09T07:58:52;4.50;;;0.75;;
22078;SDS011;11206;57.696;11.944;2022-09-09T08:01:20;12.85;;;0.85;;
22078;SDS011;11206;57.696;11.944;2022-09-09T08:03:47;10.45;;;1.30;;
22078;SDS011;11206;57.696;11.944;2022-09-09T08:06:17;2.05;;;0.70;;
22078;SDS011;11206;57.696;11.944;2022-09-09T08:08:44;2.53;;;0.57;;
22078;SDS011;11206;57.696;11.944;2022-09-09T08:11:13;1.08;;;0.45;;
22078;SDS011;11206;57.696;11.944;2022-09-09T08:13:41;5.13;;;0.85;;
22078;SDS011;11206;57.696;11.944;2022-09-09T08:16:12;4.05;;;0.65;;
22078;SDS011;11206;57.696;11.944;2022-09-09T08:18:38;7.28;;;0.47;;
22078;SDS011;11206;57.696;11.944;2022-09-09T08:21:09;2.10;;;0.70;;
22078;SDS011;11206;57.696;11.944;2022-09-09T08:23:37;1.17;;;0.40;;
22078;SDS011;11206;57.696;11.944;2022-09-09T08:26:09;2.50;;;0.63;;
22078;SDS011;11206;57.696;11.944;2022-09-09T08:28:36;3.53;;;0.40;;
22078;SDS011;11206;57.696;11.944;2022-09-09T08:31:13;1.63;;;0.60;;
22078;SDS011;11206;57.696;11.944;2022-09-09T08:33:39;3.60;;;0.68;;
22078;SDS011;11206;57.696;11.944;2022-09-09T08:36:06;7.60;;;0.80;;
22078;SDS011;11206;57.696;11.944;2022-09-09T08:38:34;1.70;;;0.68;;
22078;SDS011;11206;57.696;11.944;2022-09-09T08:43:46;3.92;;;0.82;;
22078;SDS011;11206;57.696;11.944;2022-09-09T08:51:06;6.50;;;0.77;;
22078;SDS011;11206;57.696;11.944;2022-09-09T08:56:30;5.20;;;0.52;;
22078;SDS011;11206;57.696;11.944;2022-09-09T08:58:57;3.40;;;0.60;;
22078;SDS011;11206;57.696;11.944;2022-09-09T09:06:59;11.45;;;0.70;;
22078;SDS011;11206;57.696;11.944;2022-09-09T09:09:33;6.40;;;0.82;;
22078;SDS011;11206;57.696;11.944;2022-09-09T09:12:10;3.45;;;0.70;;
22078;SDS011;11206;57.696;11.944;2022-09-09T09:14:38;4.07;;;0.60;;
22078;SDS011;11206;57.696;11.944;2022-09-09T09:17:06;2.50;;;0.73;;
22078;SDS011;11206;57.696;11.944;2022-09-09T09:19:33;1.05;;;0.68;;
22078;SDS011;11206;57.696;11.944;2022-09-09T09:22:10;3.92;;;0.60;;
22078;SDS011;11206;57.696;11.944;2022-09-09T09:27:12;8.82;;;0.60;;
22078;SDS011;11206;57.696;11.944;2022-09-09T09:29:39;2.20;;;1.23;;
22078;SDS011;11206;57.696;11.944;2022-09-09T09:32:07;2.22;;;0.57;;
22078;SDS011;11206;57.696;11.944;2022-09-09T09:34:37;4.63;;;1.20;;
22078;SDS011;11206;57.696;11.944;2022-09-09T09:37:07;4.63;;;0.85;;
22078;SDS011;11206;57.696;11.944;2022-09-09T09:39:38;5.50;;;0.90;;
22078;SDS011;11206;57.696;11.944;2022-09-09T09:42:14;4.55;;;0.60;;
22078;SDS011;11206;57.696;11.944;2022-09-09T09:44:42;8.98;;;0.82;;
22078;SDS011;11206;57.696;11.944;2022-09-09T09:47:12;2.17;;;0.63;;
22078;SDS011;11206;57.696;11.944;2022-09-09T09:49:39;0.80;;;0.45;;
22078;SDS011;11206;57.696;11.944;2022-09-09T09:52:06;2.67;;;0.80;;
22078;SDS011;11206;57.696;11.944;2022-09-09T09:54:33;2.40;;;0.73;;
22078;SDS011;11206;57.696;11.944;2022-09-09T09:57:14;4.43;;;1.20;;
22078;SDS011;11206;57.696;11.944;2022-09-09T09:59:40;3.00;;;0.60;;
22078;SDS011;11206;57.696;11.944;2022-09-09T10:02:21;2.97;;;0.70;;
22078;SDS011;11206;57.696;11.944;2022-09-09T10:05:02;2.67;;;0.80;;
22078;SDS011;11206;57.696;11.944;2022-09-09T10:07:28;4.05;;;0.60;;
22078;SDS011;11206;57.696;11.944;2022-09-09T10:09:55;4.85;;;0.88;;
22078;SDS011;11206;57.696;11.944;2022-09-09T10:20:01;3.70;;;0.80;;
22078;SDS011;11206;57.696;11.944;2022-09-09T10:22:33;5.72;;;0.82;;
22078;SDS011;11206;57.696;11.944;2022-09-09T10:27:36;3.00;;;0.75;;
22078;SDS011;11206;57.696;11.944;2022-09-09T10:30:24;4.40;;;0.70;;
22078;SDS011;11206;57.696;11.944;2022-09-09T10:35:34;1.77;;;0.90;;
22078;SDS011;11206;57.696;11.944;2022-09-09T10:38:22;3.95;;;1.00;;
22078;SDS011;11206;57.696;11.944;2022-09-09T10:48:58;2.53;;;0.85;;
22078;SDS011;11206;57.696;11.944;2022-09-09T10:56:42;2.45;;;0.98;;
22078;SDS011;11206;57.696;11.944;2022-09-09T10:59:15;1.40;;;0.77;;
22078;SDS011;11206;57.696;11.944;2022-09-09T11:01:44;2.30;;;0.65;;
22078;SDS011;11206;57.696;11.944;2022-09-09T11:04:17;1.67;;;0.70;;
22078;SDS011;11206;57.696;11.944;2022-09-09T11:06:47;1.45;;;0.68;;
22078;SDS011;11206;57.696;11.944;2022-09-09T11:09:17;4.15;;;0.80;;
22078;SDS011;11206;57.696;11.944;2022-09-09T11:11:49;7.57;;;0.77;;
22078;SDS011;11206;57.696;11.944;2022-09-09T11:14:51;3.88;;;0.80;;
22078;SDS011;11206;57.696;11.944;2022-09-09T11:17:14;4.07;;;1.20;;
22078;SDS011;11206;57.696;11.944;2022-09-09T11:19:42;10.70;;;1.20;;
22078;SDS011;11206;57.696;11.944;2022-09-09T11:24:42;2.70;;;1.02;;
22078;SDS011;11206;57.696;11.944;2022-09-09T11:27:24;3.17;;;0.80;;
22078;SDS011;11206;57.696;11.944;2022-09-09T11:34:53;3.85;;;0.65;;
22078;SDS011;11206;57.696;11.944;2022-09-09T11:42:42;2.03;;;0.90;;
22078;SDS011;11206;57.696;11.944;2022-09-09T11:45:27;2.45;;;1.00;;
22078;SDS011;11206;57.696;11.944;2022-09-09T11:47:57;4.40;;;0.90;;
22078;SDS011;11206;57.696;11.944;2022-09-09T11:52:50;6.40;;;0.90;;
22078;SDS011;11206;57.696;11.944;2022-09-09T11:55:28;3.45;;;0.85;;
22078;SDS011;11206;57.696;11.944;2022-09-09T11:57:59;4.35;;;1.05;;
22078;SDS011;11206;57.696;11.944;2022-09-09T12:00:31;4.60;;;1.00;;
22078;SDS011;11206;57.696;11.944;2022-09-09T12:02:58;4.55;;;0.80;;
22078;SDS011;11206;57.696;11.944;2022-09-09T12:05:34;6.45;;;1.30;;
22078;SDS011;11206;57.696;11.944;2022-09-09T12:08:02;2.60;;;1.30;;
22078;SDS011;11206;57.696;11.944;2022-09-09T12:10:29;3.60;;;0.95;;
22078;SDS011;11206;57.696;11.944;2022-09-09T12:18:15;2.00;;;0.90;;
22078;SDS011;11206;57.696;11.944;2022-09-09T12:21:11;6.72;;;1.08;;
22078;SDS011;11206;57.696;11.944;2022-09-09T12:23:47;4.20;;;0.93;;
22078;SDS011;11206;57.696;11.944;2022-09-09T12:34:24;1.52;;;0.70;;
22078;SDS011;11206;57.696;11.944;2022-09-09T12:36:54;2.35;;;1.00;;
22078;SDS011;11206;57.696;11.944;2022-09-09T12:39:27;10.40;;;1.13;;
22078;SDS011;11206;57.696;11.944;2022-09-09T12:41:55;3.22;;;1.00;;
22078;SDS011;11206;57.696;11.944;2022-09-09T12:44:24;3.88;;;1.00;;
22078;SDS011;11206;57.696;11.944;2022-09-09T12:46:53;2.42;;;1.17;;
22078;SDS011;11206;57.696;11.944;2022-09-09T12:49:38;2.85;;;1.15;;
22078;SDS011;11206;57.696;11.944;2022-09-09T12:52:07;5.10;;;1.15;;
22078;SDS011;11206;57.696;11.944;2022-09-09T12:54:35;2.65;;;1.10;;
22078;SDS011;11206;57.696;11.944;2022-09-09T12:57:02;10.05;;;1.20;;
22078;SDS011;11206;57.696;11.944;2022-09-09T12:59:36;2.35;;;1.00;;
22078;SDS011;11206;57.696;11.944;2022-09-09T13:02:10;5.55;;;1.23;;
22078;SDS011;11206;57.696;11.944;2022-09-09T13:04:37;3.95;;;0.73;;
22078;SDS011;11206;57.696;11.944;2022-09-09T13:07:07;2.03;;;1.13;;
22078;SDS011;11206;57.696;11.944;2022-09-09T13:09:34;1.35;;;0.70;;
22078;SDS011;11206;57.696;11.944;2022-09-09T13:12:01;2.00;;;0.75;;
22078;SDS011;11206;57.696;11.944;2022-09-09T13:14:35;4.05;;;1.45;;
22078;SDS011;11206;57.696;11.944;2022-09-09T13:17:03;3.33;;;1.00;;
22078;SDS011;11206;57.696;11.944;2022-09-09T13:19:32;2.00;;;0.90;;
22078;SDS011;11206;57.696;11.944;2022-09-09T13:21:59;6.00;;;1.13;;
22078;SDS011;11206;57.696;11.944;2022-09-09T13:24:31;2.50;;;1.00;;
22078;SDS011;11206;57.696;11.944;2022-09-09T13:26:59;0.95;;;0.65;;
22078;SDS011;11206;57.696;11.944;2022-09-09T13:29:27;1.50;;;1.00;;
22078;SDS011;11206;57.696;11.944;2022-09-09T13:31:53;3.97;;;0.70;;
22078;SDS011;11206;57.696;11.944;2022-09-09T13:34:32;2.88;;;1.10;;
22078;SDS011;11206;57.696;11.944;2022-09-09T13:37:00;5.35;;;1.00;;
22078;SDS011;11206;57.696;11.944;2022-09-09T13:39:27;4.00;;;1.15;;
22078;SDS011;11206;57.696;11.944;2022-09-09T13:41:54;3.50;;;1.05;;
22078;SDS011;11206;57.696;11.944;2022-09-09T13:44:21;3.53;;;1.02;;
22078;SDS011;11206;57.696;11.944;2022-09-09T13:47:35;5.05;;;1.02;;
22078;SDS011;11206;57.696;11.944;2022-09-09T13:49:35;1.50;;;0.95;;
22078;SDS011;11206;57.696;11.944;2022-09-09T13:52:11;1.50;;;0.82;;
22078;SDS011;11206;57.696;11.944;2022-09-09T13:54:38;4.13;;;0.88;;
22078;SDS011;11206;57.696;11.944;2022-09-09T13:57:05;3.28;;;1.38;;
22078;SDS011;11206;57.696;11.944;2022-09-09T13:59:31;3.05;;;1.05;;
22078;SDS011;11206;57.696;11.944;2022-09-09T14:01:58;3.13;;;0.90;;
22078;SDS011;11206;57.696;11.944;2022-09-09T14:04:24;2.65;;;0.70;;
22078;SDS011;11206;57.696;11.944;2022-09-09T14:06:50;1.75;;;0.90;;
22078;SDS011;11206;57.696;11.944;2022-09-09T14:09:17;1.55;;;0.82;;
22078;SDS011;11206;57.696;11.944;2022-09-09T14:11:44;4.35;;;1.02;;
22078;SDS011;11206;57.696;11.944;2022-09-09T14:14:11;3.90;;;1.20;;
22078;SDS011;11206;57.696;11.944;2022-09-09T14:16:37;2.83;;;0.95;;
22078;SDS011;11206;57.696;11.944;2022-09-09T14:19:03;2.05;;;0.70;;
22078;SDS011;11206;57.696;11.944;2022-09-09T14:21:29;5.95;;;0.77;;
22078;SDS011;11206;57.696;11.944;2022-09-09T14:23:55;2.42;;;0.85;;
22078;SDS011;11206;57.696;11.944;2022-09-09T14:26:23;2.38;;;1.00;;
22078;SDS011;11206;57.696;11.944;2022-09-09T14:28:49;3.72;;;1.10;;
22078;SDS011;11206;57.696;11.944;2022-09-09T14:31:15;2.42;;;1.00;;
22078;SDS011;11206;57.696;11.944;2022-09-09T14:33:42;2.78;;;0.90;;
22078;SDS011;11206;57.696;11.944;2022-09-09T14:36:09;1.92;;;0.77;;
22078;SDS011;11206;57.696;11.944;2022-09-09T14:38:36;1.27;;;0.88;;
22078;SDS011;11206;57.696;11.944;2022-09-09T14:41:13;1.88;;;0.70;;
22078;SDS011;11206;57.696;11.944;2022-09-09T14:43:43;3.72;;;1.25;;
22078;SDS011;11206;57.696;11.944;2022-09-09T14:46:10;5.22;;;0.90;;
22078;SDS011;11206;57.696;11.944;2022-09-09T14:48:36;3.13;;;1.10;;
22078;SDS011;11206;57.696;11.944;2022-09-09T14:51:13;1.80;;;0.80;;
22078;SDS011;11206;57.696;11.944;2022-09-09T14:53:41;5.90;;;0.90;;
22078;SDS011;11206;57.696;11.944;2022-09-09T14:56:08;1.90;;;0.68;;
22078;SDS011;11206;57.696;11.944;2022-09-09T14:58:34;4.40;;;0.90;;
22078;SDS011;11206;57.696;11.944;2022-09-09T15:01:02;1.45;;;0.50;;
22078;SDS011;11206;57.696;11.944;2022-09-09T15:03:28;3.03;;;0.88;;
22078;SDS011;11206;57.696;11.944;2022-09-09T15:05:54;3.30;;;0.77;;
22078;SDS011;11206;57.696;11.944;2022-09-09T15:08:20;3.08;;;0.80;;
22078;SDS011;11206;57.696;11.944;2022-09-09T15:10:46;2.30;;;1.02;;
22078;SDS011;11206;57.696;11.944;2022-09-09T15:13:14;2.05;;;0.82;;
22078;SDS011;11206;57.696;11.944;2022-09-09T15:15:42;4.15;;;0.82;;
22078;SDS011;11206;57.696;11.944;2022-09-09T15:18:08;2.47;;;0.80;;
22078;SDS011;11206;57.696;11.944;2022-09-09T15:20:44;1.60;;;0.70;;
22078;SDS011;11206;57.696;11.944;2022-09-09T15:23:11;3.15;;;0.85;;
22078;SDS011;11206;57.696;11.944;2022-09-09T15:25:37;1.67;;;0.68;;
22078;SDS011;11206;57.696;11.944;2022-09-09T15:28:03;7.05;;;0.98;;
22078;SDS011;11206;57.696;11.944;2022-09-09T15:30:29;3.00;;;0.73;;
22078;SDS011;11206;57.696;11.944;2022-09-09T15:32:55;3.47;;;0.90;;
22078;SDS011;11206;57.696;11.944;2022-09-09T15:35:22;3.92;;;0.93;;
22078;SDS011;11206;57.696;11.944;2022-09-09T15:37:48;4.38;;;1.23;;
22078;SDS011;11206;57.696;11.944;2022-09-09T15:40:14;0.90;;;0.70;;
22078;SDS011;11206;57.696;11.944;2022-09-09T15:42:40;4.95;;;0.82;;
22078;SDS011;11206;57.696;11.944;2022-09-09T15:45:06;2.10;;;1.17;;
22078;SDS011;11206;57.696;11.944;2022-09-09T15:47:33;6.32;;;0.70;;
22078;SDS011;11206;57.696;11.944;2022-09-09T15:49:59;4.30;;;0.77;;
22078;SDS011;11206;57.696;11.944;2022-09-09T15:52:26;1.15;;;0.52;;
22078;SDS011;11206;57.696;11.944;2022-09-09T15:54:52;1.20;;;0.80;;
22078;SDS011;11206;57.696;11.944;2022-09-09T15:57:19;6.57;;;1.02;;
22078;SDS011;11206;57.696;11.944;2022-09-09T15:59:45;2.33;;;1.00;;
22078;SDS011;11206;57.696;11.944;2022-09-09T16:02:11;1.90;;;0.77;;
22078;SDS011;11206;57.696;11.944;2022-09-09T16:04:37;3.65;;;0.80;;
22078;SDS011;11206;57.696;11.944;2022-09-09T16:07:04;1.42;;;0.60;;
22078;SDS011;11206;57.696;11.944;2022-09-09T16:09:30;2.70;;;0.90;;
22078;SDS011;11206;57.696;11.944;2022-09-09T16:11:58;1.65;;;0.80;;
22078;SDS011;11206;57.696;11.944;2022-09-09T16:14:25;1.05;;;0.70;;
22078;SDS011;11206;57.696;11.944;2022-09-09T16:16:52;1.92;;;0.70;;
22078;SDS011;11206;57.696;11.944;2022-09-09T16:19:18;1.23;;;0.70;;
22078;SDS011;11206;57.696;11.944;2022-09-09T16:21:45;2.03;;;0.85;;
22078;SDS011;11206;57.696;11.944;2022-09-09T16:24:12;3.50;;;0.68;;
22078;SDS011;11206;57.696;11.944;2022-09-09T16:26:40;2.65;;;1.23;;
22078;SDS011;11206;57.696;11.944;2022-09-09T16:29:09;4.10;;;0.88;;
22078;SDS011;11206;57.696;11.944;2022-09-09T16:31:36;4.07;;;0.85;;
22078;SDS011;11206;57.696;11.944;2022-09-09T16:34:02;1.63;;;0.60;;
22078;SDS011;11206;57.696;11.944;2022-09-09T16:36:34;0.70;;;0.60;;